Verhalen, Texas
Current Conditions -  °F | °C
As of 2:55 AM on Friday 31 Oct 2014 (Local Time) from KPEQ Reporting Station
Clear Clear  
Wind Chill: 57°   Ceiling: Unl
Heat Index: 57°   Visibility: 10mi
Dew Point: 50°   Wind: 5mph
Humidity: 78%   Direction: 330°NNW
Pressure: 30.28"   Gusts: NA
Location:  31.4465°N, 103.713°W
Report Text: KPEQ 310755Z AUTO 33004KT 10SM CLR 14/10 A3028 RMK AO2 T01400102
Loading
Personal Weather Stations






























Interactive Weather Map
Tropical Storm Tracking
New forecast layout! Learn more

10-Day Weather Forecast

Advertisements
Track Severe Weather on mobile